Time;durP1;ratioP1;P1;durP2;ratioP2;P2;SDS_P1;SDS_P2;PMS_P1;PMS_P2;Temp;Humidity;BMP_temperature;BMP_pressure;BME280_temperature;BME280_humidity;BME280_pressure;Samples;Min_cycle;Max_cycle;Signal;HPM_P1;HPM_P2
2023/05/19 00:02:19;;;;;;;;;1.00;1.00;;;;;21.52;38.60;102100.08;110282;1265;19383;-38
2023/05/19 00:04:48;;;;;;;;;1.00;1.00;;;;;21.51;38.50;102097.77;110295;1265;19540;-38
2023/05/19 00:07:15;;;;;;;;;1.00;1.00;;;;;21.53;38.53;102098.88;110261;1249;20268;-38
2023/05/19 00:09:43;;;;;;;;;1.00;1.00;;;;;21.52;38.66;102098.59;110304;1265;20710;-38
2023/05/19 00:12:10;;;;;;;;;1.00;1.00;;;;;21.52;38.51;102097.33;110261;1251;20761;-39
2023/05/19 00:14:38;;;;;;;;;1.00;1.00;;;;;21.52;38.44;102098.39;110277;1251;20874;-38
2023/05/19 00:17:05;;;;;;;;;2.00;1.00;;;;;21.52;38.63;102098.02;110262;1265;22495;-38
2023/05/19 00:19:32;;;;;;;;;1.00;1.00;;;;;21.52;38.73;102092.22;110276;1265;18350;-38
2023/05/19 00:22:00;;;;;;;;;1.00;1.00;;;;;21.52;38.62;102096.05;110237;1266;22187;-38
2023/05/19 00:24:27;;;;;;;;;1.50;1.50;;;;;21.53;38.64;102093.09;110212;1250;22988;-38
2023/05/19 00:26:55;;;;;;;;;1.00;1.00;;;;;21.53;38.72;102093.59;110252;1265;19828;-38
2023/05/19 00:29:22;;;;;;;;;1.00;1.00;;;;;21.53;38.69;102090.15;110290;1251;22415;-38
2023/05/19 00:31:49;;;;;;;;;4.00;2.00;;;;;21.53;38.61;102089.09;110256;1251;20728;-37
2023/05/19 00:34:17;;;;;;;;;1.00;1.00;;;;;21.53;38.59;102091.48;110296;1265;18431;-38
2023/05/19 00:36:44;;;;;;;;;1.00;1.00;;;;;21.53;38.62;102086.73;110279;1265;19961;-38
2023/05/19 00:39:12;;;;;;;;;1.00;1.00;;;;;21.53;38.60;102087.83;110294;1265;19351;-38
2023/05/19 00:41:39;;;;;;;;;1.00;1.00;;;;;21.53;38.70;102088.55;110289;1265;19786;-37
2023/05/19 00:44:07;;;;;;;;;1.00;1.00;;;;;21.53;38.46;102088.52;110263;1265;18961;-38
2023/05/19 00:46:34;;;;;;;;;1.00;1.00;;;;;21.53;38.63;102086.33;110051;1251;225474;-38
2023/05/19 00:49:02;;;;;;;;;1.00;1.00;;;;;21.52;38.44;102085.13;110187;1265;18518;-39
2023/05/19 00:51:30;;;;;;;;;2.00;2.00;;;;;21.52;38.65;102083.92;110265;1265;20046;-38
2023/05/19 00:53:57;;;;;;;;;1.00;1.00;;;;;21.53;38.66;102084.56;110338;1265;19370;-38
2023/05/19 00:56:25;;;;;;;;;1.00;1.00;;;;;21.52;38.68;102089.52;110280;1265;18394;-40
2023/05/19 00:58:52;;;;;;;;;1.00;1.00;;;;;21.52;38.51;102089.91;110302;1252;19949;-39
2023/05/19 01:01:20;;;;;;;;;1.00;1.00;;;;;21.52;38.60;102090.44;110261;1250;19320;-38
2023/05/19 01:03:47;;;;;;;;;1.00;1.00;;;;;21.52;38.44;102095.13;110299;1265;18420;-38
2023/05/19 01:06:17;;;;;;;;;1.00;1.00;;;;;21.53;38.68;102092.67;110290;1265;19953;-37
2023/05/19 01:08:46;;;;;;;;;1.00;1.00;;;;;21.53;38.60;102089.64;110274;1266;20692;-38
2023/05/19 01:11:13;;;;;;;;;2.00;2.00;;;;;21.53;38.55;102089.06;110351;1250;19669;-38
2023/05/19 01:13:40;;;;;;;;;1.00;1.00;;;;;21.53;38.63;102090.87;110313;1251;19965;-39
2023/05/19 01:16:08;;;;;;;;;2.00;2.00;;;;;21.54;38.71;102093.36;110267;1250;20703;-37
2023/05/19 01:18:36;;;;;;;;;1.00;1.00;;;;;21.54;38.55;102089.92;110294;1251;19562;-38
2023/05/19 01:21:03;;;;;;;;;1.00;1.00;;;;;21.53;38.67;102085.55;110307;1266;18636;-36
2023/05/19 01:23:30;;;;;;;;;1.00;1.00;;;;;21.54;38.49;102088.25;110276;1265;19705;-38
2023/05/19 01:25:58;;;;;;;;;1.00;1.00;;;;;21.54;38.73;102091.36;110289;1265;19600;-37
2023/05/19 01:28:25;;;;;;;;;1.00;1.00;;;;;21.54;38.59;102089.08;110275;1265;18863;-38
2023/05/19 01:30:53;;;;;;;;;1.00;1.00;;;;;21.55;38.56;102092.35;110259;1251;20701;-38
2023/05/19 01:33:20;;;;;;;;;1.00;1.00;;;;;21.54;38.50;102095.10;110247;1251;18653;-39
2023/05/19 01:35:48;;;;;;;;;1.00;1.00;;;;;21.55;38.74;102095.21;110201;1265;18553;-44
2023/05/19 01:38:15;;;;;;;;;1.00;1.00;;;;;21.56;38.57;102091.89;110259;1265;20985;-39
2023/05/19 01:40:43;;;;;;;;;1.00;1.00;;;;;21.55;38.68;102089.39;110267;1265;19537;-38
2023/05/19 01:43:11;;;;;;;;;1.00;1.00;;;;;21.56;38.78;102092.77;110156;1250;18584;-39
2023/05/19 01:45:38;;;;;;;;;1.00;1.00;;;;;21.55;38.72;102091.91;110294;1265;20737;-38
2023/05/19 01:48:06;;;;;;;;;1.00;1.00;;;;;21.55;38.44;102090.27;110252;1251;19595;-38
2023/05/19 01:50:33;;;;;;;;;1.00;1.00;;;;;21.55;38.57;102086.69;110247;1266;22303;-39
2023/05/19 01:53:01;;;;;;;;;1.00;1.00;;;;;21.54;38.71;102088.02;110255;1249;20734;-39
2023/05/19 01:55:28;;;;;;;;;1.00;1.00;;;;;21.55;38.70;102090.48;110240;1265;22207;-39
2023/05/19 01:57:55;;;;;;;;;1.00;1.00;;;;;21.55;38.53;102089.98;110210;1251;18920;-38
2023/05/19 02:00:23;;;;;;;;;1.00;1.00;;;;;21.55;38.51;102090.85;110235;1259;19648;-39
2023/05/19 02:02:50;;;;;;;;;1.00;1.00;;;;;21.55;38.76;102087.17;110196;1251;19677;-39
2023/05/19 02:05:18;;;;;;;;;1.00;1.00;;;;;21.55;38.72;102082.88;110118;1257;18741;-39
2023/05/19 02:07:45;;;;;;;;;1.00;1.00;;;;;21.55;38.68;102083.77;110125;1265;19346;-37
2023/05/19 02:10:13;;;;;;;;;1.00;1.00;;;;;21.56;38.63;102090.04;110143;1251;19795;-38
2023/05/19 02:12:40;;;;;;;;;1.00;1.00;;;;;21.55;38.75;102088.64;110149;1251;20096;-39
2023/05/19 02:15:07;;;;;;;;;1.00;1.00;;;;;21.56;38.58;102091.71;110172;1250;22236;-38
2023/05/19 02:17:36;;;;;;;;;1.00;1.00;;;;;21.55;38.73;102093.55;110138;1265;19549;-37
2023/05/19 02:20:04;;;;;;;;;1.00;1.00;;;;;21.55;38.57;102092.45;110158;1265;18560;-37
2023/05/19 02:22:31;;;;;;;;;4.00;2.00;;;;;21.55;38.62;102092.29;110258;1265;20698;-38
2023/05/19 02:24:59;;;;;;;;;1.00;1.00;;;;;21.55;38.63;102092.11;110287;1265;18485;-38
2023/05/19 02:27:26;;;;;;;;;1.00;1.00;;;;;21.54;38.52;102091.63;110266;1265;20126;-37
2023/05/19 02:29:54;;;;;;;;;1.00;1.00;;;;;21.55;38.48;102094.48;110129;1251;20930;-39
2023/05/19 02:32:21;;;;;;;;;1.00;1.00;;;;;21.55;38.55;102094.16;110132;1265;19508;-38
2023/05/19 02:34:49;;;;;;;;;1.00;1.00;;;;;21.55;38.61;102092.29;110245;1265;20173;-38
2023/05/19 02:37:16;;;;;;;;;1.00;1.00;;;;;21.55;38.56;102089.76;110262;1250;22646;-38
2023/05/19 02:39:44;;;;;;;;;1.00;1.00;;;;;21.55;38.60;102090.45;110273;1251;18388;-38
2023/05/19 02:42:13;;;;;;;;;1.00;1.00;;;;;21.55;38.63;102085.59;110281;1265;19969;-38
2023/05/19 02:44:41;;;;;;;;;1.00;1.00;;;;;21.56;38.50;102086.60;110270;1265;22065;-38
2023/05/19 02:47:08;;;;;;;;;1.00;1.00;;;;;21.56;38.47;102081.69;110274;1265;18252;-38
2023/05/19 02:49:35;;;;;;;;;1.00;1.00;;;;;21.55;38.46;102080.63;110274;1250;18603;-38
2023/05/19 02:52:03;;;;;;;;;1.00;1.00;;;;;21.56;38.64;102080.19;110281;1265;19506;-38
2023/05/19 02:54:30;;;;;;;;;3.00;2.00;;;;;21.56;38.44;102083.50;110296;1250;22149;-38
2023/05/19 02:56:58;;;;;;;;;1.00;1.00;;;;;21.55;38.44;102078.81;110276;1265;22149;-38
2023/05/19 02:59:25;;;;;;;;;1.00;1.00;;;;;21.56;38.42;102074.93;110281;1251;21787;-38
2023/05/19 03:01:53;;;;;;;;;1.00;1.00;;;;;21.57;38.39;102077.57;110311;1250;22273;-38
2023/05/19 03:04:20;;;;;;;;;1.00;1.00;;;;;21.56;38.57;102076.70;110244;1265;21829;-40
2023/05/19 03:06:47;;;;;;;;;1.00;1.00;;;;;21.56;38.52;102085.44;110264;1251;22526;-39
2023/05/19 03:09:15;;;;;;;;;1.00;1.00;;;;;21.56;38.45;102085.10;110301;1265;18225;-38
2023/05/19 03:11:42;;;;;;;;;1.00;1.00;;;;;21.56;38.36;102080.33;110268;1251;19908;-38
2023/05/19 03:14:10;;;;;;;;;1.00;1.00;;;;;21.57;38.46;102078.83;110261;1265;22812;-38
2023/05/19 03:16:39;;;;;;;;;1.00;1.00;;;;;21.57;38.41;102084.14;110287;1265;22986;-42
2023/05/19 03:19:07;;;;;;;;;1.00;1.00;;;;;21.56;38.42;102085.44;110274;1257;22725;-39
2023/05/19 03:21:34;;;;;;;;;1.00;1.00;;;;;21.57;38.65;102084.70;110254;1251;19362;-38
2023/05/19 03:24:02;;;;;;;;;1.00;1.00;;;;;21.56;38.63;102083.44;110274;1265;19860;-38
2023/05/19 03:26:29;;;;;;;;;1.00;1.00;;;;;21.56;38.48;102080.33;110269;1251;20024;-38
2023/05/19 03:28:57;;;;;;;;;2.00;2.00;;;;;21.57;38.51;102082.66;110291;1265;20763;-39
2023/05/19 03:31:25;;;;;;;;;1.00;1.00;;;;;21.57;38.46;102086.79;110284;1265;18453;-38
2023/05/19 03:33:53;;;;;;;;;2.00;2.00;;;;;21.57;38.46;102088.63;110251;1251;21440;-38
2023/05/19 03:36:20;;;;;;;;;1.00;1.00;;;;;21.57;38.58;102088.85;110259;1265;20719;-38
2023/05/19 03:38:48;;;;;;;;;1.00;1.00;;;;;21.57;38.51;102084.66;110123;1265;22280;-38
2023/05/19 03:41:15;;;;;;;;;1.00;1.00;;;;;21.57;38.49;102084.77;110152;1265;18703;-38
2023/05/19 03:43:43;;;;;;;;;1.00;1.00;;;;;21.57;38.44;102087.36;110257;1260;20848;-38
2023/05/19 03:46:10;;;;;;;;;2.00;1.00;;;;;21.57;38.52;102087.19;110266;1265;18454;-39
2023/05/19 03:48:38;;;;;;;;;1.00;1.00;;;;;21.56;38.55;102086.53;110269;1265;22829;-38
2023/05/19 03:51:05;;;;;;;;;1.00;1.00;;;;;21.57;38.42;102087.59;110279;1265;19319;-38
2023/05/19 03:53:32;;;;;;;;;1.00;1.00;;;;;21.56;38.57;102084.73;110300;1251;19702;-38
2023/05/19 03:56:00;;;;;;;;;1.00;1.00;;;;;21.57;38.44;102087.73;110324;1251;20021;-38
2023/05/19 03:58:29;;;;;;;;;1.00;1.00;;;;;21.57;38.42;102090.81;110346;1265;20605;-38
2023/05/19 04:00:56;;;;;;;;;1.00;1.00;;;;;21.57;38.43;102090.81;110336;1250;20928;-38
2023/05/19 04:03:24;;;;;;;;;1.00;1.00;;;;;21.57;38.44;102092.83;110285;1265;18602;-39
2023/05/19 04:05:52;;;;;;;;;1.00;1.00;;;;;21.56;38.58;102091.61;110219;1265;19541;-39
2023/05/19 04:08:19;;;;;;;;;1.00;1.00;;;;;21.57;38.35;102091.55;110220;1251;20029;-38
2023/05/19 04:10:47;;;;;;;;;1.00;1.00;;;;;21.57;38.29;102094.46;110237;1265;20443;-40
2023/05/19 04:13:14;;;;;;;;;1.00;1.00;;;;;21.57;38.56;102097.70;110269;1265;19323;-38
2023/05/19 04:15:42;;;;;;;;;1.00;1.00;;;;;21.58;38.44;102095.32;110242;1250;22489;-39
2023/05/19 04:18:09;;;;;;;;;1.00;1.00;;;;;21.57;38.48;102093.16;110237;1265;19936;-38
2023/05/19 04:20:37;;;;;;;;;1.00;1.00;;;;;21.58;38.55;102098.21;110220;1257;19342;-41
2023/05/19 04:23:04;;;;;;;;;1.00;1.00;;;;;21.58;38.44;102098.92;110161;1265;22180;-39
2023/05/19 04:25:32;;;;;;;;;1.00;1.00;;;;;21.58;38.66;102104.20;110177;1265;19811;-39
2023/05/19 04:27:59;;;;;;;;;1.00;1.00;;;;;21.57;38.47;102100.62;110200;1250;21458;-38
2023/05/19 04:30:27;;;;;;;;;1.00;1.00;;;;;21.58;38.56;102101.98;110200;1265;18462;-41
2023/05/19 04:32:56;;;;;;;;;1.00;1.00;;;;;21.59;38.54;102102.13;110180;1265;18722;-39
2023/05/19 04:35:24;;;;;;;;;1.00;1.00;;;;;21.58;38.46;102100.55;110268;1265;19322;-37
2023/05/19 04:37:53;;;;;;;;;2.00;2.00;;;;;21.59;38.48;102104.84;110275;1265;19521;-38
2023/05/19 04:40:22;;;;;;;;;1.00;1.00;;;;;21.58;38.62;102104.91;110254;1265;22211;-39
2023/05/19 04:42:51;;;;;;;;;1.00;1.00;;;;;21.59;38.50;102104.83;110242;1249;22821;-40
2023/05/19 04:45:18;;;;;;;;;1.00;1.00;;;;;21.59;38.70;102103.02;110204;1265;22245;-38
2023/05/19 04:47:46;;;;;;;;;1.00;1.00;;;;;21.60;38.49;102104.42;110194;1250;20166;-38
2023/05/19 04:50:15;;;;;;;;;1.00;1.00;;;;;21.60;38.61;102103.48;110228;1265;19384;-37
2023/05/19 04:52:44;;;;;;;;;1.00;1.00;;;;;21.59;38.55;102107.50;110263;1251;22145;-38
2023/05/19 04:55:11;;;;;;;;;1.00;1.00;;;;;21.60;38.53;102108.56;110238;1265;18862;-39
2023/05/19 04:57:39;;;;;;;;;1.00;1.00;;;;;21.60;38.52;102106.54;110273;1265;19579;-38
2023/05/19 05:00:11;;;;;;;;;1.00;1.00;;;;;21.60;38.70;102112.55;110276;1250;22640;-37
2023/05/19 05:02:38;;;;;;;;;1.00;1.00;;;;;21.60;38.85;102109.45;110266;1266;22194;-38
2023/05/19 05:05:06;;;;;;;;;1.00;1.00;;;;;21.60;38.54;102109.10;110267;1265;19848;-37
2023/05/19 05:07:33;;;;;;;;;2.00;1.00;;;;;21.60;38.53;102110.37;110240;1266;18605;-41
2023/05/19 05:10:00;;;;;;;;;1.33;1.00;;;;;21.60;38.70;102113.33;110174;1265;22229;-38
2023/05/19 05:12:28;;;;;;;;;1.00;1.00;;;;;21.60;38.62;102111.15;110203;1265;20809;-38
2023/05/19 05:14:55;;;;;;;;;1.33;1.00;;;;;21.60;38.67;102113.85;110217;1251;18286;-40
2023/05/19 05:17:24;;;;;;;;;1.00;1.00;;;;;21.60;38.72;102114.19;110167;1265;18610;-38
2023/05/19 05:19:51;;;;;;;;;1.00;1.00;;;;;21.59;38.70;102108.81;110251;1251;24040;-38
2023/05/19 05:22:19;;;;;;;;;1.00;1.00;;;;;21.60;38.56;102114.19;110271;1265;18307;-37
2023/05/19 05:24:47;;;;;;;;;1.00;1.00;;;;;21.60;38.76;102115.69;110276;1265;18560;-39
2023/05/19 05:27:14;;;;;;;;;1.00;1.00;;;;;21.61;38.56;102115.05;110273;1265;20702;-38
2023/05/19 05:29:42;;;;;;;;;1.00;1.00;;;;;21.61;38.48;102115.39;110274;1265;22011;-39
2023/05/19 05:32:09;;;;;;;;;1.00;1.00;;;;;21.61;38.71;102115.77;110274;1251;19972;-38
2023/05/19 05:34:39;;;;;;;;;2.00;1.00;;;;;21.62;38.56;102120.03;110276;1265;22224;-40
2023/05/19 05:37:06;;;;;;;;;1.00;1.00;;;;;21.62;38.58;102121.33;110217;1265;18452;-39
2023/05/19 05:39:33;;;;;;;;;1.00;1.00;;;;;21.61;38.70;102124.09;110225;1265;19797;-39
2023/05/19 05:42:01;;;;;;;;;1.00;1.00;;;;;21.63;38.72;102124.16;110234;1265;20750;-39
2023/05/19 05:44:29;;;;;;;;;1.00;1.00;;;;;21.62;38.77;102118.25;110250;1265;18520;-38
2023/05/19 05:46:56;;;;;;;;;1.00;1.00;;;;;21.62;38.70;102114.06;110264;1265;20416;-39
2023/05/19 05:49:24;;;;;;;;;1.00;1.00;;;;;21.63;38.67;102112.67;110236;1265;21064;-39
2023/05/19 05:51:51;;;;;;;;;1.00;1.00;;;;;21.62;38.61;102111.50;110244;1251;18646;-39
2023/05/19 05:54:19;;;;;;;;;1.00;1.00;;;;;21.64;38.86;102110.91;110227;1265;20008;-42
2023/05/19 05:56:47;;;;;;;;;1.00;1.00;;;;;21.65;38.84;102112.30;110204;1265;20650;-38
2023/05/19 05:59:15;;;;;;;;;1.50;1.50;;;;;21.67;38.91;102120.67;110173;1265;22740;-38
2023/05/19 06:01:42;;;;;;;;;1.00;1.00;;;;;21.66;39.06;102118.21;110168;1265;18700;-39
2023/05/19 06:04:10;;;;;;;;;1.00;1.00;;;;;21.66;39.09;102124.70;110235;1265;20719;-38
2023/05/19 06:06:38;;;;;;;;;1.00;1.00;;;;;21.68;39.26;102125.80;110267;1265;19530;-38
2023/05/19 06:09:05;;;;;;;;;1.00;1.00;;;;;21.67;39.25;102126.45;110302;1265;18696;-38
2023/05/19 06:11:32;;;;;;;;;1.00;1.00;;;;;21.67;39.26;102121.89;110272;1250;19558;-38
2023/05/19 06:14:00;;;;;;;;;1.00;1.00;;;;;21.68;39.43;102124.20;110282;1251;19603;-38
2023/05/19 06:16:27;;;;;;;;;1.50;1.50;;;;;21.67;39.64;102124.06;110237;1265;21458;-39
2023/05/19 06:18:55;;;;;;;;;1.00;1.00;;;;;21.67;39.63;102122.29;110262;1260;21864;-38
2023/05/19 06:21:22;;;;;;;;;1.00;1.00;;;;;21.67;39.54;102123.41;110261;1251;19559;-38
2023/05/19 06:23:50;;;;;;;;;1.00;1.00;;;;;21.67;39.59;102126.31;110263;1257;18935;-39
2023/05/19 06:26:17;;;;;;;;;1.00;1.00;;;;;21.66;39.82;102126.71;110280;1251;20596;-37
2023/05/19 06:28:45;;;;;;;;;2.00;2.00;;;;;21.67;39.63;102126.14;110285;1250;19735;-37
2023/05/19 06:31:12;;;;;;;;;2.00;2.00;;;;;21.66;39.80;102126.38;110251;1265;19962;-39
2023/05/19 06:33:39;;;;;;;;;1.00;1.00;;;;;21.66;39.73;102124.54;110281;1250;20886;-36
2023/05/19 06:36:08;;;;;;;;;2.00;2.00;;;;;21.67;39.88;102124.84;110276;1265;18610;-38
2023/05/19 06:38:36;;;;;;;;;1.00;1.00;;;;;21.67;39.91;102127.20;110292;1265;19980;-36
2023/05/19 06:41:03;;;;;;;;;2.00;2.00;;;;;21.66;39.92;102125.45;110299;1265;20818;-41
2023/05/19 06:43:31;;;;;;;;;1.00;1.00;;;;;21.67;40.09;102124.50;110156;1260;19581;-38
2023/05/19 06:45:58;;;;;;;;;1.50;1.50;;;;;21.67;39.91;102125.34;110174;1265;19909;-37
2023/05/19 06:48:26;;;;;;;;;2.00;2.00;;;;;21.68;39.90;102128.20;110204;1251;20793;-38
2023/05/19 06:50:53;;;;;;;;;1.00;1.00;;;;;21.67;39.84;102128.48;110311;1266;18157;-38
2023/05/19 06:53:21;;;;;;;;;1.67;1.67;;;;;21.65;39.88;102128.81;110310;1265;19827;-39
2023/05/19 06:55:50;;;;;;;;;1.67;1.67;;;;;21.60;39.81;102128.58;110277;1250;22482;-41
2023/05/19 06:58:17;;;;;;;;;4.00;4.00;;;;;21.54;39.92;102126.21;110308;1250;19621;-41
2023/05/19 07:00:45;;;;;;;;;1.00;1.00;;;;;21.50;39.92;102129.33;110267;1265;20230;-40
2023/05/19 07:03:12;;;;;;;;;4.00;2.00;;;;;21.50;40.14;102132.65;110256;1251;20982;-43
2023/05/19 07:05:39;;;;;;;;;4.00;2.00;;;;;21.48;39.75;102132.87;110288;1251;19633;-40
2023/05/19 07:08:08;;;;;;;;;4.00;4.00;;;;;21.46;40.06;102137.36;110268;1251;20123;-41
2023/05/19 07:10:35;;;;;;;;;4.00;4.00;;;;;21.45;39.80;102134.02;110291;1265;19329;-40
2023/05/19 07:13:03;;;;;;;;;4.00;4.00;;;;;21.40;39.57;102136.15;110287;1251;19694;-41
2023/05/19 07:15:30;;;;;;;;;5.00;5.00;;;;;21.31;39.81;102138.34;110266;1250;22648;-42
2023/05/19 07:17:58;;;;;;;;;4.00;4.00;;;;;21.30;39.64;102134.61;110256;1265;19354;-40
2023/05/19 07:20:25;;;;;;;;;4.00;4.00;;;;;21.29;39.36;102138.07;110315;1265;19562;-40
2023/05/19 07:22:53;;;;;;;;;4.00;4.00;;;;;21.28;39.39;102144.73;110294;1265;21749;-40
2023/05/19 07:25:20;;;;;;;;;3.00;3.00;;;;;21.27;39.21;102146.67;110280;1265;20706;-39
2023/05/19 07:27:48;;;;;;;;;2.00;2.00;;;;;21.32;39.41;102145.10;110297;1251;19622;-42
2023/05/19 07:30:15;;;;;;;;;5.00;5.00;;;;;21.38;39.37;102146.02;110297;1250;20002;-39
2023/05/19 07:32:43;;;;;;;;;4.00;4.00;;;;;21.43;39.29;102150.59;110287;1266;20704;-39
2023/05/19 07:35:10;;;;;;;;;2.00;2.00;;;;;21.46;39.34;102147.58;110271;1265;19568;-40
2023/05/19 07:37:38;;;;;;;;;2.00;2.00;;;;;21.48;39.41;102148.35;110306;1250;18629;-39
2023/05/19 07:40:06;;;;;;;;;2.00;2.00;;;;;21.49;39.38;102148.88;110294;1265;19268;-39
2023/05/19 07:42:34;;;;;;;;;3.00;3.00;;;;;21.50;39.49;102148.07;110324;1265;19598;-39
2023/05/19 07:45:02;;;;;;;;;2.00;2.00;;;;;21.52;39.41;102145.92;110293;1265;20073;-40
2023/05/19 07:47:29;;;;;;;;;2.00;2.00;;;;;21.53;39.34;102149.68;110291;1250;22508;-39
2023/05/19 07:49:57;;;;;;;;;2.00;2.00;;;;;21.53;39.45;102147.41;110278;1266;22965;-40
2023/05/19 07:52:24;;;;;;;;;2.00;2.00;;;;;21.54;39.50;102143.13;110299;1265;18860;-39
2023/05/19 07:54:51;;;;;;;;;2.67;2.67;;;;;21.54;39.52;102139.68;110284;1250;19319;-39
2023/05/19 07:57:19;;;;;;;;;4.00;2.00;;;;;21.55;39.36;102143.75;110285;1265;19910;-39
2023/05/19 07:59:46;;;;;;;;;2.00;2.00;;;;;21.56;39.52;102139.63;110215;1251;20178;-39
2023/05/19 08:02:14;;;;;;;;;2.00;2.00;;;;;21.57;39.55;102137.23;110212;1250;20905;-39
2023/05/19 08:04:41;;;;;;;;;2.00;2.00;;;;;21.57;39.51;102140.07;110272;1265;18439;-39
2023/05/19 08:07:09;;;;;;;;;2.00;2.00;;;;;21.59;39.62;102139.21;110289;1257;19835;-39
2023/05/19 08:09:36;;;;;;;;;2.00;2.00;;;;;21.59;39.63;102140.45;110184;1261;19536;-38
2023/05/19 08:12:04;;;;;;;;;2.00;2.00;;;;;21.59;39.73;102131.38;110163;1251;19694;-39
2023/05/19 08:14:33;;;;;;;;;1.00;1.00;;;;;21.59;39.71;102132.11;110296;1265;20319;-39
2023/05/19 08:17:01;;;;;;;;;1.00;1.00;;;;;21.60;39.60;102135.64;110285;1265;20686;-39
2023/05/19 08:19:28;;;;;;;;;2.00;2.00;;;;;21.60;39.75;102132.02;110285;1265;18409;-38
2023/05/19 08:21:56;;;;;;;;;1.50;1.00;;;;;21.60;39.59;102130.05;110275;1265;19002;-38
2023/05/19 08:24:23;;;;;;;;;1.00;1.00;;;;;21.60;39.70;102131.24;110275;1266;19322;-38
2023/05/19 08:26:51;;;;;;;;;1.00;1.00;;;;;21.61;39.60;102133.06;110263;1251;19583;-38
2023/05/19 08:29:18;;;;;;;;;1.50;1.50;;;;;21.61;39.81;102132.68;110271;1265;20554;-38
2023/05/19 08:31:46;;;;;;;;;1.00;1.00;;;;;21.61;39.63;102132.85;110278;1265;19555;-38
2023/05/19 08:34:13;;;;;;;;;1.00;1.00;;;;;21.61;39.93;102133.38;110259;1265;19581;-38
2023/05/19 08:36:41;;;;;;;;;1.00;1.00;;;;;21.61;39.82;102131.96;110220;1265;20259;-38
2023/05/19 08:39:08;;;;;;;;;1.00;1.00;;;;;21.61;39.82;102133.19;110247;1265;19467;-38
2023/05/19 08:41:35;;;;;;;;;1.00;1.00;;;;;21.62;39.84;102133.85;110247;1265;19850;-37
2023/05/19 08:44:03;;;;;;;;;2.00;2.00;;;;;21.63;39.86;102133.77;110263;1266;20138;-38
2023/05/19 08:46:30;;;;;;;;;2.00;2.00;;;;;21.63;39.73;102129.61;110244;1250;20899;-39
2023/05/19 08:48:58;;;;;;;;;1.00;1.00;;;;;21.63;39.89;102133.02;110247;1265;18420;-38
2023/05/19 08:51:25;;;;;;;;;1.50;1.50;;;;;21.65;39.78;102131.23;110245;1265;22688;-37
2023/05/19 08:53:53;;;;;;;;;1.00;1.00;;;;;21.64;39.71;102129.63;110258;1251;22709;-39
2023/05/19 08:56:20;;;;;;;;;2.00;1.00;;;;;21.65;39.71;102131.44;110252;1265;19570;-39
2023/05/19 08:58:48;;;;;;;;;1.00;1.00;;;;;21.65;39.81;102129.03;110257;1265;18631;-38
2023/05/19 09:01:16;;;;;;;;;1.00;1.00;;;;;21.66;39.71;102129.71;110231;1265;19467;-38
2023/05/19 09:03:43;;;;;;;;;1.00;1.00;;;;;21.65;39.60;102129.91;110305;1257;19546;-38
2023/05/19 09:06:12;;;;;;;;;1.00;1.00;;;;;21.66;39.84;102132.41;110165;1257;22872;-39
2023/05/19 09:08:39;;;;;;;;;2.00;2.00;;;;;21.65;39.89;102130.09;110224;1257;19349;-38
2023/05/19 09:11:07;;;;;;;;;1.00;1.00;;;;;21.66;39.93;102127.29;110220;1265;18422;-40
2023/05/19 09:13:34;;;;;;;;;2.00;2.00;;;;;21.65;39.88;102126.27;110226;1265;22727;-39
2023/05/19 09:16:02;;;;;;;;;2.00;2.00;;;;;21.66;39.90;102123.81;110165;1251;22718;-40
2023/05/19 09:18:30;;;;;;;;;1.50;1.50;;;;;21.67;39.98;102127.23;110244;1251;19586;-39
2023/05/19 09:20:59;;;;;;;;;1.00;1.00;;;;;21.67;39.89;102124.05;110198;1265;18707;-40
2023/05/19 09:23:27;;;;;;;;;1.00;1.00;;;;;21.67;39.74;102122.63;110204;1251;20795;-39
2023/05/19 09:25:55;;;;;;;;;1.00;1.00;;;;;21.67;39.81;102121.51;110268;1257;22480;-39
2023/05/19 09:28:22;;;;;;;;;1.00;1.00;;;;;21.67;39.92;102119.16;110252;1251;20140;-39
2023/05/19 09:30:50;;;;;;;;;1.00;1.00;;;;;21.66;39.94;102115.42;110225;1265;20953;-39
2023/05/19 09:33:17;;;;;;;;;1.00;1.00;;;;;21.68;40.07;102119.67;110281;1265;18439;-39
2023/05/19 09:35:44;;;;;;;;;1.00;1.00;;;;;21.67;39.89;102120.08;110270;1250;22721;-39
2023/05/19 09:38:12;;;;;;;;;2.00;2.00;;;;;21.67;39.95;102122.60;110274;1265;20691;-40
2023/05/19 09:40:39;;;;;;;;;1.00;1.00;;;;;21.67;40.02;102119.88;110301;1249;19629;-39
2023/05/19 09:43:07;;;;;;;;;1.00;1.00;;;;;21.67;39.91;102119.90;110283;1265;19456;-41
2023/05/19 09:45:34;;;;;;;;;1.00;1.00;;;;;21.67;40.02;102116.86;110285;1265;20699;-39
2023/05/19 09:48:03;;;;;;;;;1.00;1.00;;;;;21.66;39.91;102116.31;110283;1266;20219;-41
2023/05/19 09:50:30;;;;;;;;;1.00;1.00;;;;;21.67;39.89;102115.19;110311;1265;22882;-40
2023/05/19 09:52:58;;;;;;;;;1.00;1.00;;;;;21.66;40.01;102111.26;110261;1265;20716;-40
2023/05/19 09:55:25;;;;;;;;;1.00;1.00;;;;;21.66;39.91;102113.65;110283;1265;18828;-39
2023/05/19 09:57:53;;;;;;;;;1.00;1.00;;;;;21.67;39.96;102116.98;110165;1265;18603;-39
2023/05/19 10:00:20;;;;;;;;;1.00;1.00;;;;;21.67;40.11;102110.42;110199;1265;19387;-40
2023/05/19 10:02:49;;;;;;;;;1.00;1.00;;;;;21.67;40.20;102113.48;110291;1265;19580;-40
2023/05/19 10:05:18;;;;;;;;;1.00;1.00;;;;;21.67;40.09;102110.80;110297;1265;20805;-39
2023/05/19 10:07:47;;;;;;;;;1.00;1.00;;;;;21.67;40.10;102114.45;110281;1251;22075;-39
2023/05/19 10:10:14;;;;;;;;;1.00;1.00;;;;;21.67;40.05;102108.48;110289;1266;18355;-36
2023/05/19 10:12:42;;;;;;;;;2.00;1.00;;;;;21.67;40.11;102103.39;110317;1265;19950;-43
2023/05/19 10:15:10;;;;;;;;;1.00;1.00;;;;;21.67;40.02;102106.83;110287;1251;20960;-37
2023/05/19 10:17:37;;;;;;;;;2.00;2.00;;;;;21.67;39.93;102104.98;110308;1265;18520;-40
2023/05/19 10:20:05;;;;;;;;;1.00;1.00;;;;;21.68;40.16;102103.48;110272;1257;22967;-38
2023/05/19 10:22:33;;;;;;;;;2.00;2.00;;;;;21.69;40.08;102104.09;110263;1265;22489;-38
2023/05/19 10:25:00;;;;;;;;;1.50;1.50;;;;;21.69;40.02;102099.90;110263;1265;18396;-41
2023/05/19 10:27:28;;;;;;;;;2.00;2.00;;;;;21.69;39.93;102102.77;110277;1250;20144;-40
2023/05/19 10:29:55;;;;;;;;;1.00;1.00;;;;;21.69;40.04;102104.84;110250;1265;19390;-39
2023/05/19 10:32:23;;;;;;;;;1.00;1.00;;;;;21.69;40.11;102104.44;110241;1265;19723;-38
2023/05/19 10:34:50;;;;;;;;;1.00;1.00;;;;;21.69;40.06;102105.90;110245;1265;20183;-40
2023/05/19 10:37:18;;;;;;;;;1.00;1.00;;;;;21.69;40.06;102104.79;110261;1265;20879;-38
2023/05/19 10:39:45;;;;;;;;;2.00;2.00;;;;;21.68;40.10;102106.52;110265;1265;22737;-38
2023/05/19 10:42:12;;;;;;;;;1.00;1.00;;;;;21.69;40.06;102106.27;110243;1251;20107;-38
2023/05/19 10:44:40;;;;;;;;;1.00;1.00;;;;;21.69;40.20;102109.86;110255;1265;20749;-38
2023/05/19 10:47:10;;;;;;;;;1.00;1.00;;;;;21.69;40.22;102115.45;110270;1265;18448;-39
2023/05/19 10:49:38;;;;;;;;;1.00;1.00;;;;;21.69;40.40;102119.71;110288;1265;18636;-38
2023/05/19 10:52:05;;;;;;;;;1.00;1.00;;;;;21.69;40.30;102122.65;110246;1265;19378;-38
2023/05/19 10:54:32;;;;;;;;;1.00;1.00;;;;;21.69;40.22;102122.41;110251;1250;18425;-39
2023/05/19 10:57:00;;;;;;;;;1.00;1.00;;;;;21.69;40.35;102118.94;110258;1265;20066;-40
2023/05/19 10:59:27;;;;;;;;;1.00;1.00;;;;;21.69;40.46;102117.13;110266;1251;20828;-38
2023/05/19 11:01:55;;;;;;;;;1.00;1.00;;;;;21.69;40.44;102110.40;110244;1251;20797;-37
2023/05/19 11:04:22;;;;;;;;;1.00;1.00;;;;;21.69;40.44;102102.62;110252;1251;22789;-37
2023/05/19 11:06:50;;;;;;;;;1.67;1.67;;;;;21.69;40.48;102098.44;110276;1265;22697;-38
2023/05/19 11:09:18;;;;;;;;;2.00;2.00;;;;;21.70;40.59;102103.27;110282;1265;19526;-38
2023/05/19 11:11:45;;;;;;;;;2.00;1.00;;;;;21.70;40.65;102106.16;110262;1251;20065;-38
2023/05/19 11:14:13;;;;;;;;;1.00;1.00;;;;;21.69;40.56;102102.08;110221;1265;21136;-45
2023/05/19 11:16:41;;;;;;;;;1.00;1.00;;;;;21.68;40.52;102100.52;110184;1265;22194;-40
2023/05/19 11:19:09;;;;;;;;;1.00;1.00;;;;;21.67;40.74;102092.27;110293;1265;18609;-38